createdAt,value
2018-07-06T00:02:32.649Z,18.20
2018-07-06T00:05:11.766Z,18.30
2018-07-06T00:07:50.978Z,18.30
2018-07-06T00:10:30.007Z,18.20
2018-07-06T00:13:09.138Z,18.20
2018-07-06T00:15:48.275Z,18.20
2018-07-06T00:18:27.401Z,18.20
2018-07-06T00:21:06.557Z,18.30
2018-07-06T00:23:45.673Z,18.20
2018-07-06T00:31:31.609Z,18.30
2018-07-06T00:34:10.715Z,18.30
2018-07-06T00:36:50.087Z,18.20
2018-07-06T00:39:29.074Z,18.20
2018-07-06T00:42:08.185Z,18.30
2018-07-06T00:49:54.114Z,18.40
2018-07-06T00:52:33.234Z,18.40
2018-07-06T00:55:12.390Z,18.40
2018-07-06T00:57:52.153Z,18.50
2018-07-06T01:00:31.381Z,18.50
2018-07-06T01:03:11.102Z,18.50
2018-07-06T01:05:50.330Z,18.50
2018-07-06T01:08:30.016Z,18.50
2018-07-06T01:11:09.436Z,18.60
2018-07-06T01:13:49.125Z,18.60
2018-07-06T01:16:28.341Z,18.70
2018-07-06T01:19:07.551Z,18.70
2018-07-06T01:21:47.330Z,18.80
2018-07-06T01:24:26.416Z,18.70
2018-07-06T01:27:05.538Z,18.70
2018-07-06T01:29:44.740Z,18.80
2018-07-06T01:32:23.926Z,18.80
2018-07-06T01:35:03.154Z,18.90
2018-07-06T01:37:42.298Z,18.90
2018-07-06T01:40:21.514Z,18.90
2018-07-06T01:43:00.741Z,18.90
2018-07-06T01:45:39.967Z,18.90
2018-07-06T01:48:19.253Z,18.90
2018-07-06T01:50:58.414Z,18.90
2018-07-06T01:53:37.586Z,18.90
2018-07-06T01:56:16.854Z,18.90
2018-07-06T01:58:55.967Z,18.90
2018-07-06T02:01:35.054Z,18.80
2018-07-06T02:04:14.148Z,18.70
2018-07-06T02:06:53.322Z,18.60
2018-07-06T02:09:32.423Z,18.50
2018-07-06T02:12:11.522Z,18.50
2018-07-06T02:14:50.790Z,18.50
2018-07-06T02:17:29.973Z,18.50
2018-07-06T02:20:09.119Z,18.50
2018-07-06T02:22:48.123Z,18.50
2018-07-06T02:25:27.172Z,18.50
2018-07-06T02:28:06.359Z,18.60
2018-07-06T02:30:45.549Z,18.60
2018-07-06T02:35:58.157Z,18.70
2018-07-06T02:38:37.326Z,18.70
2018-07-06T02:41:16.532Z,18.70
2018-07-06T02:43:55.767Z,18.70
2018-07-06T02:46:35.042Z,18.80
2018-07-06T02:49:14.219Z,18.80
2018-07-06T02:51:53.432Z,18.80
2018-07-06T02:59:39.380Z,18.80
2018-07-06T03:02:18.547Z,18.90
2018-07-06T03:04:57.540Z,18.80
2018-07-06T03:07:36.783Z,18.80
2018-07-06T03:12:49.303Z,18.90
2018-07-06T03:15:28.464Z,18.90
2018-07-06T03:20:40.987Z,19.00
2018-07-06T03:23:20.123Z,19.00
2018-07-06T03:25:59.272Z,19.00
2018-07-06T03:28:38.712Z,18.90
2018-07-06T03:31:17.657Z,18.90
2018-07-06T03:33:56.886Z,18.90
2018-07-06T03:36:36.136Z,18.90
2018-07-06T03:39:15.268Z,18.90
2018-07-06T03:44:27.809Z,18.80
2018-07-06T03:47:07.013Z,18.80
2018-07-06T03:49:46.265Z,18.80
2018-07-06T03:52:25.479Z,18.80
2018-07-06T03:55:04.634Z,18.80
2018-07-06T03:57:43.880Z,18.80
2018-07-06T04:00:23.066Z,18.80
2018-07-06T04:03:02.260Z,18.80
2018-07-06T04:05:41.540Z,18.80
2018-07-06T04:08:20.698Z,18.80
2018-07-06T04:10:59.938Z,18.80
2018-07-06T04:13:39.149Z,18.80
2018-07-06T04:16:18.401Z,18.80
2018-07-06T04:19:05.196Z,18.70
2018-07-06T04:21:44.319Z,18.50
2018-07-06T04:24:23.582Z,18.50
2018-07-06T04:27:02.863Z,18.30
2018-07-06T04:29:42.055Z,18.30
2018-07-06T04:32:21.231Z,18.20
2018-07-06T04:35:00.434Z,18.10
2018-07-06T04:37:39.634Z,18.10
2018-07-06T04:40:18.831Z,18.00
2018-07-06T04:42:57.956Z,18.00
2018-07-06T04:45:37.131Z,17.80
2018-07-06T04:48:16.306Z,17.80
2018-07-06T04:50:55.529Z,17.80
2018-07-06T04:53:34.731Z,17.80
2018-07-06T04:56:14.034Z,17.70
2018-07-06T04:58:53.156Z,17.70
2018-07-06T05:01:32.200Z,17.70
2018-07-06T05:04:11.700Z,17.90
2018-07-06T05:09:24.140Z,17.90
2018-07-06T05:12:03.357Z,18.00
2018-07-06T05:14:42.380Z,18.00
2018-07-06T05:17:21.584Z,17.90
2018-07-06T05:20:01.249Z,17.90
2018-07-06T05:22:40.502Z,17.80
2018-07-06T05:25:19.598Z,17.70
2018-07-06T05:27:58.658Z,17.60
2018-07-06T05:30:38.519Z,17.60
2018-07-06T05:33:17.787Z,17.50
2018-07-06T05:35:56.960Z,17.50
2018-07-06T05:38:36.077Z,17.50
2018-07-06T05:41:15.265Z,17.50
2018-07-06T05:43:54.292Z,17.50
2018-07-06T05:46:33.461Z,17.50
2018-07-06T05:49:12.734Z,17.50
2018-07-06T05:51:51.805Z,17.60
2018-07-06T05:54:31.100Z,17.70
2018-07-06T05:57:10.345Z,17.60
2018-07-06T05:59:49.542Z,17.70
2018-07-06T06:02:28.670Z,17.70
2018-07-06T06:05:07.868Z,17.60
2018-07-06T06:07:35.774Z,17.60
2018-07-06T06:10:05.843Z,17.50
2018-07-06T06:12:35.199Z,17.50
2018-07-06T06:15:04.634Z,17.50
2018-07-06T06:17:34.820Z,17.50
2018-07-06T06:20:03.858Z,17.50
2018-07-06T06:22:32.221Z,17.50
2018-07-06T06:25:01.073Z,17.50
2018-07-06T06:29:57.411Z,17.40
2018-07-06T06:32:26.438Z,17.40
2018-07-06T06:34:54.968Z,17.40
2018-07-06T06:37:24.169Z,17.50
2018-07-06T06:39:53.585Z,17.40
2018-07-06T06:44:50.252Z,17.50
2018-07-06T06:47:20.021Z,17.40
2018-07-06T06:49:48.700Z,17.40
2018-07-06T06:52:17.865Z,17.50
2018-07-06T06:54:46.417Z,17.40
2018-07-06T06:57:16.176Z,17.50
2018-07-06T06:59:45.755Z,17.40
2018-07-06T07:04:44.852Z,17.50
2018-07-06T07:07:13.682Z,17.40
2018-07-06T07:09:43.051Z,17.40
2018-07-06T07:12:12.442Z,17.40
2018-07-06T07:14:41.526Z,17.40
2018-07-06T07:17:11.892Z,17.40
2018-07-06T07:19:40.309Z,17.40
2018-07-06T07:22:09.252Z,17.40
2018-07-06T07:24:38.009Z,17.40
2018-07-06T07:27:06.864Z,17.40
2018-07-06T07:29:36.537Z,17.40
2018-07-06T07:32:04.986Z,17.40
2018-07-06T07:34:33.328Z,17.40
2018-07-06T07:37:01.816Z,17.30
2018-07-06T07:39:31.685Z,17.30
2018-07-06T07:42:02.527Z,17.40
2018-07-06T07:44:30.954Z,17.40
2018-07-06T07:47:00.722Z,17.30
2018-07-06T07:49:30.188Z,17.40
2018-07-06T07:52:10.971Z,17.40
2018-07-06T07:54:45.469Z,17.30
2018-07-06T07:57:13.753Z,17.30
2018-07-06T07:59:42.221Z,17.30
2018-07-06T08:02:10.458Z,17.30
2018-07-06T08:04:38.984Z,17.40
2018-07-06T08:07:07.330Z,17.50
2018-07-06T08:09:37.590Z,17.40
2018-07-06T08:12:06.941Z,17.40
2018-07-06T08:17:06.376Z,17.50
2018-07-06T08:19:37.693Z,17.40
2018-07-06T08:22:07.498Z,17.50
2018-07-06T08:24:38.591Z,17.40
2018-07-06T08:27:11.255Z,17.40
2018-07-06T08:29:43.958Z,17.40
2018-07-06T08:32:18.571Z,17.40
2018-07-06T08:34:59.497Z,17.30
2018-07-06T08:37:42.598Z,17.40
2018-07-06T08:40:15.544Z,17.40
2018-07-06T08:45:17.546Z,17.60
2018-07-06T08:47:48.726Z,17.70
2018-07-06T08:50:20.989Z,17.70
2018-07-06T08:52:54.519Z,17.70
2018-07-06T08:55:28.431Z,17.60
2018-07-06T08:58:01.042Z,17.60
2018-07-06T09:00:35.133Z,17.60
2018-07-06T09:03:05.040Z,17.50
2018-07-06T09:05:37.528Z,17.50
2018-07-06T09:08:07.553Z,17.50
2018-07-06T09:10:42.233Z,17.60
2018-07-06T09:13:12.223Z,17.60
2018-07-06T09:15:45.318Z,17.60
2018-07-06T09:18:19.997Z,17.70
2018-07-06T09:20:53.817Z,17.70
2018-07-06T09:23:29.600Z,17.80
2018-07-06T09:26:03.916Z,17.80
2018-07-06T09:28:37.319Z,17.80
2018-07-06T09:31:15.594Z,18.00
2018-07-06T09:33:48.167Z,18.00
2018-07-06T09:36:20.811Z,17.90
2018-07-06T09:38:50.496Z,17.90
2018-07-06T09:41:23.145Z,18.00
2018-07-06T09:44:01.556Z,18.10
2018-07-06T09:46:35.068Z,18.10
2018-07-06T09:49:13.512Z,18.20
2018-07-06T09:51:48.196Z,18.10
2018-07-06T09:54:20.657Z,18.10
2018-07-06T09:56:57.629Z,18.20
2018-07-06T09:59:32.526Z,18.20
2018-07-06T10:02:06.278Z,18.10
2018-07-06T10:04:40.726Z,18.10
2018-07-06T10:07:15.875Z,18.10
2018-07-06T10:09:50.451Z,18.10
2018-07-06T10:12:27.911Z,18.20
2018-07-06T10:15:04.839Z,18.20
2018-07-06T10:17:42.674Z,18.30
2018-07-06T10:20:17.704Z,18.20
2018-07-06T10:22:53.847Z,18.30
2018-07-06T10:25:27.343Z,18.40
2018-07-06T10:28:28.366Z,18.30
2018-07-06T10:35:41.858Z,18.20
2018-07-06T10:38:14.266Z,18.30
2018-07-06T10:43:21.249Z,18.30
2018-07-06T10:45:55.036Z,18.40
2018-07-06T10:48:30.764Z,18.40
2018-07-06T10:51:06.615Z,18.40
2018-07-06T10:53:39.420Z,18.30
2018-07-06T10:56:16.380Z,18.50
2018-07-06T10:58:52.746Z,18.50
2018-07-06T11:01:25.219Z,18.70
2018-07-06T11:03:57.714Z,18.80
2018-07-06T11:06:28.937Z,18.80
2018-07-06T11:09:02.646Z,18.80
2018-07-06T11:11:36.592Z,18.90
2018-07-06T11:14:10.120Z,19.00
2018-07-06T11:16:49.717Z,19.20
2018-07-06T11:19:24.253Z,19.20
2018-07-06T11:21:54.516Z,19.30
2018-07-06T11:24:29.123Z,19.40
2018-07-06T11:27:03.008Z,19.40
2018-07-06T11:29:41.648Z,19.40
2018-07-06T11:37:17.847Z,19.40
2018-07-06T11:39:49.693Z,19.40
2018-07-06T11:42:27.935Z,19.30
2018-07-06T11:45:02.323Z,19.20
2018-07-06T11:47:37.167Z,19.10
2018-07-06T11:50:15.336Z,19.10
2018-07-06T11:52:49.933Z,19.10
2018-07-06T11:55:22.638Z,19.10
2018-07-06T11:57:57.506Z,19.10
2018-07-06T12:00:30.310Z,19.10
2018-07-06T12:03:06.122Z,19.10
2018-07-06T12:05:39.670Z,19.00
2018-07-06T12:08:14.737Z,19.00
2018-07-06T12:10:51.626Z,19.10
2018-07-06T12:13:26.528Z,19.00
2018-07-06T12:15:59.108Z,19.10
2018-07-06T12:18:32.392Z,19.20
2018-07-06T12:21:06.280Z,19.10
2018-07-06T12:23:41.671Z,19.10
2018-07-06T12:26:14.366Z,19.20
2018-07-06T12:28:51.586Z,19.20
2018-07-06T12:31:28.884Z,19.30
2018-07-06T12:34:00.415Z,19.30
2018-07-06T12:36:39.285Z,19.40
2018-07-06T12:39:10.668Z,19.60
2018-07-06T12:44:29.510Z,19.80
2018-07-06T12:47:05.271Z,19.90
2018-07-06T12:49:40.165Z,20.00
2018-07-06T12:52:12.614Z,20.00
2018-07-06T12:54:46.255Z,20.00
2018-07-06T12:57:19.657Z,20.00
2018-07-06T12:59:56.689Z,20.00
2018-07-06T13:02:30.265Z,20.20
2018-07-06T13:05:07.388Z,20.30
2018-07-06T13:07:45.843Z,20.20
2018-07-06T13:10:20.687Z,20.20
2018-07-06T13:12:56.294Z,20.20
2018-07-06T13:15:29.102Z,20.20
2018-07-06T13:18:05.242Z,20.30
2018-07-06T13:20:38.817Z,20.20
2018-07-06T13:23:17.955Z,20.20
2018-07-06T13:26:03.480Z,20.10
2018-07-06T13:28:35.192Z,20.20
2018-07-06T13:31:15.674Z,20.20
2018-07-06T13:33:51.607Z,20.30
2018-07-06T13:36:27.890Z,20.30
2018-07-06T13:39:00.219Z,20.30
2018-07-06T13:41:36.307Z,20.20
2018-07-06T13:44:05.678Z,20.30
2018-07-06T13:46:42.297Z,20.50
2018-07-06T13:49:13.982Z,20.60
2018-07-06T13:51:52.083Z,20.80
2018-07-06T13:54:25.804Z,20.90
2018-07-06T13:57:06.598Z,21.20
2018-07-06T14:05:05.968Z,21.30
2018-07-06T14:08:06.694Z,21.70
2018-07-06T14:13:29.765Z,22.40
2018-07-06T14:18:40.433Z,22.80
2018-07-06T14:24:07.647Z,23.10
2018-07-06T14:26:44.354Z,23.50
2018-07-06T14:29:19.085Z,23.20
2018-07-06T14:40:07.913Z,23.40
2018-07-06T14:42:39.605Z,23.60
2018-07-06T14:45:12.044Z,23.40
2018-07-06T14:47:55.090Z,23.30
2018-07-06T14:53:05.361Z,23.30
2018-07-06T14:55:39.574Z,23.20
2018-07-06T14:58:10.415Z,23.00
2018-07-06T15:00:43.226Z,23.00
2018-07-06T15:03:19.354Z,23.10
2018-07-06T15:05:51.253Z,23.00
2018-07-06T15:08:22.898Z,23.40
2018-07-06T15:10:58.061Z,23.40
2018-07-06T15:13:31.546Z,23.30
2018-07-06T15:16:05.465Z,23.20
2018-07-06T15:18:38.060Z,23.10
2018-07-06T15:21:11.959Z,22.80
2018-07-06T15:23:47.929Z,22.70
2018-07-06T15:26:19.975Z,22.70
2018-07-06T15:31:18.171Z,22.80
2018-07-06T15:33:46.359Z,22.70
2018-07-06T15:36:15.036Z,23.00
2018-07-06T15:38:43.537Z,23.00
2018-07-06T15:41:12.332Z,23.00
2018-07-06T15:43:48.153Z,22.90
2018-07-06T15:46:22.366Z,22.70
2018-07-06T15:51:26.642Z,22.40
2018-07-06T15:54:03.107Z,22.60
2018-07-06T15:56:38.630Z,22.40
2018-07-06T15:59:14.969Z,22.50
2018-07-06T16:01:55.136Z,22.40
2018-07-06T16:04:30.236Z,22.40
2018-07-06T16:07:02.772Z,22.40
2018-07-06T16:09:37.877Z,22.20
2018-07-06T16:12:10.208Z,22.10
2018-07-06T16:14:43.745Z,21.90
2018-07-06T16:17:18.313Z,22.00
2018-07-06T16:22:31.294Z,22.00
2018-07-06T16:25:03.711Z,22.00
2018-07-06T16:27:39.786Z,22.00
2018-07-06T16:30:15.754Z,22.00
2018-07-06T16:32:45.172Z,22.00
2018-07-06T16:35:14.029Z,21.90
2018-07-06T16:37:43.571Z,21.80
2018-07-06T16:40:13.737Z,21.80
2018-07-06T16:42:42.801Z,21.80
2018-07-06T16:45:11.822Z,21.90
2018-07-06T16:47:41.067Z,21.90
2018-07-06T16:50:09.246Z,22.00
2018-07-06T16:52:43.600Z,22.00
2018-07-06T16:55:18.305Z,22.00
2018-07-06T17:09:21.209Z,21.80
2018-07-06T17:55:55.832Z,21.70
2018-07-06T17:58:27.552Z,21.40
2018-07-06T18:00:59.685Z,21.20
2018-07-06T18:03:32.038Z,21.20
2018-07-06T18:06:12.803Z,21.20
2018-07-06T18:08:46.483Z,21.10
2018-07-06T18:11:25.626Z,21.10
2018-07-06T18:14:10.930Z,21.00
2018-07-06T18:16:51.434Z,21.00
2018-07-06T18:19:22.727Z,21.00
2018-07-06T18:21:56.009Z,21.00
2018-07-06T18:24:35.236Z,20.90
2018-07-06T18:27:08.149Z,20.90
2018-07-06T18:29:42.251Z,20.90
2018-07-06T18:32:17.089Z,20.90
2018-07-06T18:34:47.553Z,20.80
2018-07-06T18:37:19.933Z,20.70
2018-07-06T18:39:56.141Z,20.70
2018-07-06T18:42:29.397Z,20.70
2018-07-06T18:45:04.252Z,20.70
2018-07-06T18:47:42.176Z,20.70
2018-07-06T18:50:19.269Z,20.60
2018-07-06T18:52:57.457Z,20.60
2018-07-06T18:55:32.448Z,20.60
2018-07-06T18:58:05.493Z,20.50
2018-07-06T19:00:39.495Z,20.50
2018-07-06T19:03:12.261Z,20.50
2018-07-06T19:12:29.558Z,20.20
2018-07-06T19:15:08.192Z,20.10
2018-07-06T19:17:43.786Z,20.00
2018-07-06T19:20:22.739Z,20.00
2018-07-06T19:23:02.419Z,20.00
2018-07-06T19:25:42.031Z,19.90
2018-07-06T19:28:32.022Z,19.80
2018-07-06T19:31:02.194Z,19.80
2018-07-06T19:38:48.988Z,19.80
2018-07-06T19:41:58.489Z,19.80
2018-07-06T19:44:37.082Z,19.70
2018-07-06T19:59:49.738Z,19.60
2018-07-06T20:02:38.098Z,19.70
2018-07-06T20:05:13.898Z,19.80
2018-07-06T20:07:45.475Z,19.80
2018-07-06T20:10:17.814Z,19.80
2018-07-06T20:12:52.724Z,19.80
2018-07-06T20:20:26.320Z,19.80
2018-07-06T20:23:03.398Z,19.80
2018-07-06T20:25:36.823Z,19.80
2018-07-06T20:28:15.629Z,19.80
2018-07-06T20:30:59.418Z,19.80
2018-07-06T20:33:27.642Z,19.80
2018-07-06T20:35:55.784Z,19.80
2018-07-06T20:38:24.120Z,19.80
2018-07-06T20:40:52.329Z,19.80
2018-07-06T20:43:20.584Z,19.80
2018-07-06T20:45:48.772Z,19.80
2018-07-06T20:48:16.916Z,19.80
2018-07-06T20:50:44.996Z,19.80
2018-07-06T20:53:13.167Z,19.80
2018-07-06T20:55:41.349Z,19.80
2018-07-06T20:58:09.614Z,19.70
2018-07-06T21:00:37.760Z,19.70
2018-07-06T21:03:05.905Z,19.80
2018-07-06T21:05:34.053Z,19.80
2018-07-06T21:08:02.294Z,19.80
2018-07-06T21:10:30.482Z,19.90
2018-07-06T21:12:58.528Z,19.80
2018-07-06T21:15:26.655Z,19.90
2018-07-06T21:17:54.845Z,19.90
2018-07-06T21:20:23.004Z,19.90
2018-07-06T21:22:51.376Z,19.90
2018-07-06T21:25:19.529Z,19.90
2018-07-06T21:27:47.634Z,19.90
2018-07-06T21:30:15.798Z,19.90
2018-07-06T21:32:44.669Z,19.80
2018-07-06T21:35:12.803Z,19.80
2018-07-06T21:37:41.099Z,19.80
2018-07-06T21:40:09.404Z,19.70
2018-07-06T21:42:37.506Z,19.70
2018-07-06T21:45:05.916Z,19.70
2018-07-06T21:47:34.044Z,19.70
2018-07-06T21:50:02.183Z,19.70
2018-07-06T21:52:30.315Z,19.60
2018-07-06T21:54:58.529Z,19.60
2018-07-06T21:57:26.677Z,19.60
2018-07-06T21:59:54.863Z,19.60
2018-07-06T22:02:22.987Z,19.60
2018-07-06T22:04:51.088Z,19.60
2018-07-06T22:07:19.174Z,19.60
2018-07-06T22:09:47.271Z,19.60
2018-07-06T22:12:15.447Z,19.60
2018-07-06T22:14:43.781Z,19.60
2018-07-06T22:17:12.022Z,19.60
2018-07-06T22:19:40.311Z,19.60
2018-07-06T22:24:36.461Z,19.50
2018-07-06T22:27:04.728Z,19.50
2018-07-06T22:29:32.892Z,19.50
2018-07-06T22:32:01.056Z,19.60
2018-07-06T22:34:29.235Z,19.60
2018-07-06T22:36:57.407Z,19.60
2018-07-06T22:39:25.607Z,19.60
2018-07-06T22:41:54.543Z,19.60
2018-07-06T22:44:22.676Z,19.60
2018-07-06T22:46:50.759Z,19.70
2018-07-06T22:49:18.821Z,19.60
2018-07-06T22:51:46.913Z,19.70
2018-07-06T22:54:15.070Z,19.60
2018-07-06T22:56:43.196Z,19.60
2018-07-06T22:59:11.346Z,19.70
2018-07-06T23:01:39.479Z,19.60
2018-07-06T23:06:35.790Z,19.60
2018-07-06T23:09:04.612Z,19.50
2018-07-06T23:11:32.700Z,19.50
2018-07-06T23:14:00.812Z,19.50
2018-07-06T23:18:56.764Z,19.40
2018-07-06T23:21:24.943Z,19.40
2018-07-06T23:23:53.024Z,19.30
2018-07-06T23:26:21.088Z,19.30
2018-07-06T23:28:49.191Z,19.20
2018-07-06T23:31:17.264Z,19.20
2018-07-06T23:33:45.395Z,19.20
2018-07-06T23:38:41.404Z,19.10
2018-07-06T23:41:09.576Z,19.10
2018-07-06T23:43:37.729Z,19.00
2018-07-06T23:46:05.850Z,18.90
2018-07-06T23:48:34.028Z,18.90
2018-07-06T23:53:30.016Z,18.90
2018-07-06T23:55:58.245Z,18.90
2018-07-06T23:58:31.212Z,18.80
